createdAt,value
2023-07-08T00:00:17.195Z,6.60
2023-07-08T00:02:24.153Z,6.00
2023-07-08T00:04:27.066Z,5.80
2023-07-08T00:06:30.483Z,6.33
2023-07-08T00:08:33.537Z,5.47
2023-07-08T00:10:36.673Z,6.00
2023-07-08T00:12:39.853Z,6.30
2023-07-08T00:14:44.419Z,6.30
2023-07-08T00:16:47.540Z,6.30
2023-07-08T00:18:50.770Z,5.70
2023-07-08T00:20:53.923Z,6.50
2023-07-08T00:22:58.024Z,5.53
2023-07-08T00:25:01.076Z,6.10
2023-07-08T00:27:04.117Z,6.00
2023-07-08T00:29:10.732Z,6.03
2023-07-08T00:31:16.069Z,6.10
2023-07-08T00:33:19.144Z,6.00
2023-07-08T00:35:24.526Z,5.97
2023-07-08T00:37:30.798Z,5.70
2023-07-08T00:39:33.871Z,6.47
2023-07-08T00:41:41.132Z,6.60
2023-07-08T00:43:48.866Z,6.13
2023-07-08T00:46:02.607Z,5.50
2023-07-08T00:48:14.155Z,5.73
2023-07-08T00:50:17.485Z,6.13
2023-07-08T00:52:26.024Z,6.07
2023-07-08T00:54:30.075Z,6.00
2023-07-08T00:56:35.618Z,5.93
2023-07-08T00:58:41.434Z,5.37
2023-07-08T01:00:44.567Z,6.10
2023-07-08T01:02:56.518Z,5.50
2023-07-08T01:05:06.216Z,6.20
2023-07-08T01:07:09.371Z,5.70
2023-07-08T01:09:13.770Z,5.20
2023-07-08T01:11:16.809Z,5.47
2023-07-08T01:13:19.917Z,5.83
2023-07-08T01:15:26.248Z,5.80
2023-07-08T01:17:33.508Z,6.03
2023-07-08T01:19:37.157Z,6.20
2023-07-08T01:21:48.452Z,5.80
2023-07-08T01:23:51.441Z,6.03
2023-07-08T01:25:54.530Z,6.00
2023-07-08T01:27:59.258Z,6.10
2023-07-08T01:30:05.926Z,5.70
2023-07-08T01:32:11.845Z,6.17
2023-07-08T01:34:14.937Z,5.37
2023-07-08T01:36:18.033Z,5.50
2023-07-08T01:38:26.986Z,6.50
2023-07-08T01:40:31.875Z,5.40
2023-07-08T01:42:35.099Z,6.47
2023-07-08T01:44:38.845Z,5.70
2023-07-08T01:46:41.920Z,5.90
2023-07-08T01:48:49.097Z,5.83
2023-07-08T01:50:58.256Z,5.87
2023-07-08T01:53:02.750Z,5.67
2023-07-08T01:55:07.873Z,5.57
2023-07-08T01:57:11.009Z,5.70
2023-07-08T01:59:14.137Z,5.50
2023-07-08T02:01:17.324Z,5.47
2023-07-08T02:03:21.930Z,5.87
2023-07-08T02:05:25.392Z,5.10
2023-07-08T02:07:28.544Z,5.03
2023-07-08T02:09:31.636Z,5.70
2023-07-08T02:11:36.146Z,6.10
2023-07-08T02:13:39.317Z,6.20
2023-07-08T02:15:42.429Z,5.30
2023-07-08T02:17:45.571Z,5.63
2023-07-08T02:19:48.665Z,6.70
2023-07-08T02:21:53.925Z,5.87
2023-07-08T02:23:57.000Z,5.10
2023-07-08T02:26:00.051Z,5.80
2023-07-08T02:28:04.911Z,5.93
2023-07-08T02:30:09.234Z,6.00
2023-07-08T02:32:12.346Z,5.77
2023-07-08T02:34:16.917Z,6.00
2023-07-08T02:36:20.212Z,5.67
2023-07-08T02:38:23.302Z,5.40
2023-07-08T02:40:27.331Z,5.97
2023-07-08T02:42:31.099Z,5.57
2023-07-08T02:44:35.508Z,5.27
2023-07-08T02:46:38.603Z,5.60
2023-07-08T02:48:42.502Z,5.50
2023-07-08T02:50:45.577Z,6.13
2023-07-08T02:52:48.583Z,5.83
2023-07-08T02:54:51.596Z,5.33
2023-07-08T02:56:54.653Z,6.00
2023-07-08T02:58:57.974Z,5.50
2023-07-08T03:01:02.919Z,5.37
2023-07-08T03:03:06.892Z,5.63
2023-07-08T03:05:11.188Z,5.87
2023-07-08T03:07:15.974Z,5.73
2023-07-08T03:09:19.513Z,6.47
2023-07-08T03:11:23.238Z,5.30
2023-07-08T03:13:26.339Z,5.10
2023-07-08T03:15:30.740Z,6.00
2023-07-08T03:17:35.242Z,6.00
2023-07-08T03:19:38.480Z,6.90
2023-07-08T03:21:41.583Z,6.57
2023-07-08T03:23:44.776Z,5.67
2023-07-08T03:25:50.039Z,5.43
2023-07-08T03:27:53.873Z,6.33
2023-07-08T03:29:58.445Z,5.87
2023-07-08T03:32:01.543Z,5.60
2023-07-08T03:34:05.958Z,5.97
2023-07-08T03:36:13.580Z,6.03
2023-07-08T03:38:16.665Z,6.87
2023-07-08T03:40:18.868Z,5.83
2023-07-08T03:42:22.298Z,5.30
2023-07-08T03:44:25.807Z,5.70
2023-07-08T03:46:29.836Z,5.63
2023-07-08T03:48:32.939Z,5.67
2023-07-08T03:50:38.689Z,6.10
2023-07-08T03:52:41.740Z,5.80
2023-07-08T03:54:47.809Z,5.70
2023-07-08T03:56:51.025Z,6.20
2023-07-08T03:58:54.442Z,6.30
2023-07-08T04:00:58.801Z,5.30
2023-07-08T04:03:02.298Z,5.73
2023-07-08T04:05:05.799Z,6.00
2023-07-08T04:07:10.254Z,6.57
2023-07-08T04:09:13.454Z,5.50
2023-07-08T04:11:20.575Z,6.30
2023-07-08T04:13:23.999Z,6.27
2023-07-08T04:15:29.487Z,5.50
2023-07-08T04:17:32.703Z,5.73
2023-07-08T04:19:36.831Z,5.60
2023-07-08T04:21:39.046Z,6.20
2023-07-08T04:23:43.683Z,6.07
2023-07-08T04:25:47.037Z,5.37
2023-07-08T04:27:50.094Z,5.80
2023-07-08T04:29:53.145Z,5.83
2023-07-08T04:31:56.241Z,5.90
2023-07-08T04:33:59.331Z,6.40
2023-07-08T04:36:02.511Z,5.80
2023-07-08T04:38:10.299Z,6.40
2023-07-08T04:40:19.702Z,5.83
2023-07-08T04:42:22.961Z,5.93
2023-07-08T04:44:26.132Z,5.17
2023-07-08T04:46:38.311Z,5.53
2023-07-08T04:48:41.557Z,6.37
2023-07-08T04:50:46.560Z,6.27
2023-07-08T04:52:50.916Z,6.47
2023-07-08T04:54:54.170Z,6.13
2023-07-08T04:56:58.662Z,6.33
2023-07-08T04:59:02.728Z,6.10
2023-07-08T05:01:06.017Z,5.37
2023-07-08T05:03:09.185Z,6.80
2023-07-08T05:05:11.274Z,6.37
2023-07-08T05:07:14.375Z,5.93
2023-07-08T05:09:18.057Z,6.07
2023-07-08T05:11:21.156Z,5.53
2023-07-08T05:13:25.848Z,6.30
2023-07-08T05:15:29.059Z,5.73
2023-07-08T05:17:32.162Z,5.60
2023-07-08T05:19:35.203Z,5.73
2023-07-08T05:21:39.495Z,6.60
2023-07-08T05:23:42.886Z,5.23
2023-07-08T05:25:45.980Z,6.07
2023-07-08T05:27:49.557Z,6.00
2023-07-08T05:29:54.175Z,5.70
2023-07-08T05:31:57.764Z,5.40
2023-07-08T05:34:00.790Z,6.60
2023-07-08T05:36:03.998Z,5.40
2023-07-08T05:38:07.070Z,5.80
2023-07-08T05:40:11.065Z,5.47
2023-07-08T05:42:14.182Z,4.80
2023-07-08T05:44:17.168Z,5.80
2023-07-08T05:46:21.694Z,5.60
2023-07-08T05:48:24.733Z,5.23
2023-07-08T05:50:27.825Z,5.90
2023-07-08T05:52:30.995Z,5.37
2023-07-08T05:54:34.072Z,6.03
2023-07-08T05:56:37.262Z,5.17
2023-07-08T05:58:40.375Z,5.40
2023-07-08T06:00:43.607Z,5.67
2023-07-08T06:02:48.190Z,5.67
2023-07-08T06:04:51.345Z,4.50
2023-07-08T06:06:54.581Z,6.00
2023-07-08T06:08:57.641Z,5.13
2023-07-08T06:11:01.071Z,5.90
2023-07-08T06:13:04.336Z,5.30
2023-07-08T06:15:08.624Z,5.53
2023-07-08T06:17:11.787Z,5.40
2023-07-08T06:19:18.195Z,5.53
2023-07-08T06:21:21.357Z,5.77
2023-07-08T06:23:23.991Z,5.10
2023-07-08T06:25:27.082Z,5.60
2023-07-08T06:27:30.206Z,5.37
2023-07-08T06:29:33.420Z,5.30
2023-07-08T06:31:36.750Z,5.20
2023-07-08T06:33:39.779Z,5.27
2023-07-08T06:35:44.806Z,6.23
2023-07-08T06:37:47.849Z,5.23
2023-07-08T06:39:50.928Z,5.10
2023-07-08T06:41:53.062Z,5.60
2023-07-08T06:44:01.532Z,4.47
2023-07-08T06:46:08.487Z,5.47
2023-07-08T06:48:11.669Z,5.50
2023-07-08T06:50:14.782Z,5.10
2023-07-08T06:52:19.327Z,4.73
2023-07-08T06:54:22.471Z,5.03
2023-07-08T06:56:25.696Z,5.23
2023-07-08T06:58:28.703Z,5.60
2023-07-08T07:00:31.942Z,4.97
2023-07-08T07:02:35.599Z,6.03
2023-07-08T07:04:38.939Z,5.10
2023-07-08T07:06:41.990Z,5.20
2023-07-08T07:08:46.576Z,5.53
2023-07-08T07:10:49.707Z,5.97
2023-07-08T07:12:52.737Z,5.27
2023-07-08T07:14:56.028Z,4.80
2023-07-08T07:17:08.422Z,5.10
2023-07-08T07:19:12.430Z,4.80
2023-07-08T07:21:15.617Z,5.30
2023-07-08T07:23:18.837Z,4.90
2023-07-08T07:25:23.472Z,4.77
2023-07-08T07:27:26.568Z,4.70
2023-07-08T07:29:29.836Z,5.50
2023-07-08T07:31:33.570Z,4.60
2023-07-08T07:33:36.809Z,5.00
2023-07-08T07:35:44.459Z,5.23
2023-07-08T07:37:47.642Z,4.73
2023-07-08T07:39:50.818Z,5.27
2023-07-08T07:41:55.223Z,5.23
2023-07-08T07:43:58.274Z,4.90
2023-07-08T07:46:01.722Z,4.70
2023-07-08T07:48:06.138Z,4.80
2023-07-08T07:50:10.684Z,5.03
2023-07-08T07:52:13.948Z,5.00
2023-07-08T07:54:17.121Z,4.83
2023-07-08T07:56:20.166Z,4.60
2023-07-08T07:58:27.686Z,4.30
2023-07-08T08:00:31.210Z,5.00
2023-07-08T08:02:34.375Z,4.67
2023-07-08T08:04:37.579Z,5.50
2023-07-08T08:06:40.898Z,4.97
2023-07-08T08:08:43.995Z,4.67
2023-07-08T08:10:47.329Z,4.47
2023-07-08T08:12:53.984Z,4.63
2023-07-08T08:14:58.827Z,5.63
2023-07-08T08:17:02.080Z,4.60
2023-07-08T08:19:07.923Z,4.43
2023-07-08T08:21:12.036Z,4.47
2023-07-08T08:23:15.153Z,5.07
2023-07-08T08:25:22.200Z,3.97
2023-07-08T08:27:25.304Z,4.60
2023-07-08T08:29:28.612Z,4.57
2023-07-08T08:31:33.435Z,4.43
2023-07-08T08:33:36.472Z,4.70
2023-07-08T08:35:39.540Z,4.60
2023-07-08T08:37:42.682Z,4.40
2023-07-08T08:39:45.954Z,4.40
2023-07-08T08:41:49.245Z,4.97
2023-07-08T08:43:52.966Z,4.50
2023-07-08T08:46:00.362Z,5.00
2023-07-08T08:48:08.048Z,4.83
2023-07-08T08:50:25.886Z,4.53
2023-07-08T08:52:29.302Z,5.03
2023-07-08T08:54:32.991Z,4.30
2023-07-08T08:56:41.227Z,3.80
2023-07-08T08:58:47.081Z,4.70
2023-07-08T09:00:56.481Z,4.17
2023-07-08T09:03:03.575Z,4.27
2023-07-08T09:05:10.989Z,4.40
2023-07-08T09:07:16.960Z,4.80
2023-07-08T09:09:35.304Z,3.97
2023-07-08T09:11:43.087Z,4.37
2023-07-08T09:13:46.402Z,4.20
2023-07-08T09:15:50.972Z,3.93
2023-07-08T09:17:57.576Z,4.10
2023-07-08T09:20:08.114Z,3.80
2023-07-08T09:22:17.038Z,3.87
2023-07-08T09:24:23.079Z,3.80
2023-07-08T09:26:26.866Z,3.93
2023-07-08T09:28:39.750Z,3.83
2023-07-08T09:30:42.911Z,3.57
2023-07-08T09:32:46.125Z,3.40
2023-07-08T09:34:52.453Z,4.23
2023-07-08T09:36:55.568Z,3.73
2023-07-08T09:38:59.999Z,4.07
2023-07-08T09:41:03.357Z,3.70
2023-07-08T09:43:20.157Z,3.90
2023-07-08T09:45:25.270Z,3.53
2023-07-08T09:47:32.006Z,3.60
2023-07-08T09:49:37.173Z,3.53
2023-07-08T09:51:39.481Z,3.70
2023-07-08T09:53:42.669Z,3.10
2023-07-08T09:55:48.251Z,3.60
2023-07-08T09:57:52.933Z,3.50
2023-07-08T09:59:59.677Z,3.80
2023-07-08T10:02:04.799Z,4.00
2023-07-08T10:04:08.956Z,3.70
2023-07-08T10:06:19.529Z,3.60
2023-07-08T10:08:24.378Z,3.20
2023-07-08T10:10:31.368Z,3.93
2023-07-08T10:12:37.528Z,4.07
2023-07-08T10:14:45.398Z,3.23
2023-07-08T10:16:48.703Z,3.80
2023-07-08T10:18:51.891Z,3.63
2023-07-08T10:21:00.525Z,4.00
2023-07-08T10:23:11.062Z,3.43
2023-07-08T10:25:22.646Z,3.73
2023-07-08T10:27:30.611Z,4.03
2023-07-08T10:29:40.893Z,3.17
2023-07-08T10:31:49.350Z,3.47
2023-07-08T10:34:16.636Z,3.17
2023-07-08T10:36:26.065Z,3.30
2023-07-08T10:38:41.673Z,3.13
2023-07-08T10:40:50.238Z,2.97
2023-07-08T10:43:02.193Z,3.17
2023-07-08T10:45:12.398Z,2.90
2023-07-08T10:47:29.815Z,4.37
2023-07-08T10:49:52.901Z,3.50
2023-07-08T10:52:06.382Z,2.70
2023-07-08T10:54:26.931Z,3.23
2023-07-08T10:56:38.397Z,3.70
2023-07-08T10:58:55.316Z,3.67
2023-07-08T11:01:14.839Z,3.07
2023-07-08T11:03:40.822Z,3.37
2023-07-08T11:05:47.073Z,2.90
2023-07-08T11:07:53.415Z,3.03
2023-07-08T11:09:59.424Z,3.33
2023-07-08T11:12:05.539Z,3.30
2023-07-08T11:14:12.462Z,3.43
2023-07-08T11:16:22.022Z,3.30
2023-07-08T11:18:30.437Z,3.30
2023-07-08T11:20:39.557Z,3.33
2023-07-08T11:22:47.468Z,3.40
2023-07-08T11:24:52.400Z,3.27
2023-07-08T11:26:58.678Z,2.97
2023-07-08T11:29:03.034Z,3.13
2023-07-08T11:31:07.105Z,3.10
2023-07-08T11:33:15.633Z,2.80
2023-07-08T11:35:21.897Z,2.63
2023-07-08T11:37:26.790Z,2.50
2023-07-08T11:39:34.844Z,3.23
2023-07-08T11:41:38.041Z,2.60
2023-07-08T11:43:47.460Z,2.70
2023-07-08T11:45:51.091Z,3.20
2023-07-08T11:47:55.332Z,3.00
2023-07-08T11:49:59.896Z,2.80
2023-07-08T11:52:04.660Z,2.97
2023-07-08T11:54:15.354Z,2.20
2023-07-08T11:56:24.217Z,2.73
2023-07-08T11:58:29.260Z,2.63
2023-07-08T12:00:34.687Z,2.27
2023-07-08T12:02:51.030Z,2.80
2023-07-08T12:04:59.933Z,2.53
2023-07-08T12:07:24.409Z,2.50
2023-07-08T12:09:31.343Z,2.73
2023-07-08T12:11:36.560Z,3.00
2023-07-08T12:13:41.135Z,2.53
2023-07-08T12:15:43.366Z,2.67
2023-07-08T12:17:47.668Z,2.67
2023-07-08T12:19:50.601Z,2.83
2023-07-08T12:21:55.315Z,2.20
2023-07-08T12:24:05.425Z,2.27
2023-07-08T12:26:10.882Z,2.20
2023-07-08T12:28:14.735Z,2.10
2023-07-08T12:30:18.623Z,2.27
2023-07-08T12:32:26.595Z,1.80
2023-07-08T12:34:30.813Z,2.53
2023-07-08T12:36:35.921Z,1.60
2023-07-08T12:38:42.270Z,1.90
2023-07-08T12:40:45.805Z,1.97
2023-07-08T12:42:49.126Z,2.37
2023-07-08T12:44:52.211Z,2.03
2023-07-08T12:46:56.447Z,2.30
2023-07-08T12:48:59.618Z,1.63
2023-07-08T12:51:02.960Z,1.90
2023-07-08T12:53:10.564Z,2.10
2023-07-08T12:55:16.001Z,1.90
2023-07-08T12:57:19.865Z,1.97
2023-07-08T12:59:25.207Z,1.50
2023-07-08T13:01:32.177Z,1.43
2023-07-08T13:03:37.971Z,1.60
2023-07-08T13:05:42.257Z,1.50
2023-07-08T13:07:45.836Z,1.70
2023-07-08T13:09:50.640Z,1.50
2023-07-08T13:11:57.083Z,1.43
2023-07-08T13:14:03.564Z,1.63
2023-07-08T13:16:07.194Z,1.57
2023-07-08T13:18:16.833Z,1.73
2023-07-08T13:20:20.925Z,1.90
2023-07-08T13:22:24.826Z,1.60
2023-07-08T13:24:32.531Z,1.53
2023-07-08T13:26:35.634Z,1.70
2023-07-08T13:28:41.468Z,1.73
2023-07-08T13:30:53.696Z,2.00
2023-07-08T13:32:57.783Z,1.73
2023-07-08T13:35:00.979Z,1.97
2023-07-08T13:37:04.147Z,1.67
2023-07-08T13:39:08.582Z,1.60
2023-07-08T13:41:13.563Z,1.57
2023-07-08T13:43:16.825Z,1.80
2023-07-08T13:45:25.584Z,1.80
2023-07-08T13:47:30.550Z,1.90
2023-07-08T13:49:42.398Z,1.73
2023-07-08T13:51:46.862Z,1.97
2023-07-08T13:53:52.046Z,1.80
2023-07-08T13:56:03.084Z,2.00
2023-07-08T13:58:11.531Z,1.70
2023-07-08T14:00:15.884Z,1.80
2023-07-08T14:02:23.418Z,1.60
2023-07-08T14:04:35.417Z,1.73
2023-07-08T14:06:40.637Z,1.80
2023-07-08T14:08:43.753Z,1.63
2023-07-08T14:10:45.927Z,1.83
2023-07-08T14:12:49.003Z,1.60
2023-07-08T14:14:52.497Z,1.90
2023-07-08T14:16:56.936Z,1.77
2023-07-08T14:19:04.595Z,1.80
2023-07-08T14:21:07.664Z,1.57
2023-07-08T14:23:12.108Z,1.93
2023-07-08T14:25:16.545Z,1.80
2023-07-08T14:27:20.234Z,1.63
2023-07-08T14:29:23.568Z,1.50
2023-07-08T14:31:27.963Z,1.40
2023-07-08T14:33:31.279Z,1.77
2023-07-08T14:35:35.757Z,2.03
2023-07-08T14:37:39.024Z,1.77
2023-07-08T14:39:42.205Z,1.90
2023-07-08T14:41:46.691Z,1.63
2023-07-08T14:43:49.790Z,2.00
2023-07-08T14:45:56.000Z,1.53
2023-07-08T14:47:59.155Z,1.80
2023-07-08T14:50:02.612Z,1.60
2023-07-08T14:52:08.361Z,1.57
2023-07-08T14:54:11.471Z,1.67
2023-07-08T14:56:17.370Z,1.70
2023-07-08T14:58:24.250Z,1.97
2023-07-08T15:00:27.364Z,1.80
2023-07-08T15:02:30.434Z,1.90
2023-07-08T15:04:33.618Z,1.90
2023-07-08T15:06:36.671Z,1.83
2023-07-08T15:08:41.193Z,1.80
2023-07-08T15:10:48.344Z,1.90
2023-07-08T15:12:51.738Z,1.60
2023-07-08T15:14:54.819Z,1.50
2023-07-08T15:16:57.957Z,2.00
2023-07-08T15:19:01.157Z,2.07
2023-07-08T15:21:04.785Z,1.53
2023-07-08T15:23:09.043Z,1.90
2023-07-08T15:25:15.195Z,2.10
2023-07-08T15:27:21.044Z,2.20
2023-07-08T15:29:25.647Z,2.20
2023-07-08T15:31:30.743Z,2.07
2023-07-08T15:33:33.876Z,1.60
2023-07-08T15:35:37.007Z,1.70
2023-07-08T15:37:40.260Z,1.83
2023-07-08T15:39:43.532Z,1.73
2023-07-08T15:41:48.009Z,1.60
2023-07-08T15:43:51.451Z,1.93
2023-07-08T15:45:55.273Z,1.93
2023-07-08T15:47:58.838Z,2.00
2023-07-08T15:50:01.990Z,2.37
2023-07-08T15:52:06.524Z,2.13
2023-07-08T15:54:09.671Z,1.67
2023-07-08T15:56:14.648Z,1.73
2023-07-08T15:58:27.401Z,2.00
2023-07-08T16:00:33.455Z,1.80
2023-07-08T16:02:38.133Z,2.37
2023-07-08T16:04:41.354Z,2.67
2023-07-08T16:06:44.499Z,2.00
2023-07-08T16:08:48.026Z,2.43
2023-07-08T16:10:53.857Z,2.07
2023-07-08T16:12:58.471Z,2.30
2023-07-08T16:15:03.572Z,1.97
2023-07-08T16:17:10.438Z,2.03
2023-07-08T16:19:14.764Z,2.60
2023-07-08T16:21:18.118Z,2.23
2023-07-08T16:23:22.206Z,2.17
2023-07-08T16:25:30.378Z,2.30
2023-07-08T16:27:33.554Z,2.30
2023-07-08T16:29:36.666Z,2.30
2023-07-08T16:31:41.204Z,2.20
2023-07-08T16:33:44.468Z,2.20
2023-07-08T16:35:47.618Z,2.60
2023-07-08T16:37:52.125Z,2.63
2023-07-08T16:39:56.836Z,2.07
2023-07-08T16:41:59.900Z,2.10
2023-07-08T16:44:03.218Z,2.13
2023-07-08T16:46:06.447Z,2.10
2023-07-08T16:48:11.096Z,2.50
2023-07-08T16:50:15.096Z,2.00
2023-07-08T16:52:19.121Z,1.80
2023-07-08T16:54:25.233Z,1.97
2023-07-08T16:56:28.378Z,2.13
2023-07-08T16:58:31.566Z,2.67
2023-07-08T17:00:34.941Z,2.13
2023-07-08T17:02:38.337Z,2.00
2023-07-08T17:04:43.126Z,2.40
2023-07-08T17:06:47.019Z,2.17
2023-07-08T17:08:50.403Z,2.10
2023-07-08T17:10:54.800Z,2.30
2023-07-08T17:12:57.892Z,2.20
2023-07-08T17:15:00.958Z,2.43
2023-07-08T17:17:05.105Z,2.50
2023-07-08T17:19:08.203Z,2.20
2023-07-08T17:21:15.645Z,2.50
2023-07-08T17:23:20.245Z,2.67
2023-07-08T17:25:25.516Z,2.10
2023-07-08T17:27:28.499Z,2.30
2023-07-08T17:29:31.626Z,2.63
2023-07-08T17:31:47.179Z,2.33
2023-07-08T17:33:57.028Z,2.43
2023-07-08T17:36:00.206Z,1.97
2023-07-08T17:38:04.629Z,1.93
2023-07-08T17:40:14.778Z,2.40
2023-07-08T17:42:17.868Z,2.00
2023-07-08T17:44:21.474Z,1.80
2023-07-08T17:46:27.379Z,2.27
2023-07-08T17:48:30.719Z,2.00
2023-07-08T17:50:33.858Z,2.27
2023-07-08T17:52:36.996Z,2.37
2023-07-08T17:54:41.454Z,2.90
2023-07-08T17:56:47.477Z,2.80
2023-07-08T17:58:51.763Z,2.60
2023-07-08T18:00:54.900Z,2.30
2023-07-08T18:02:58.607Z,2.40
2023-07-08T18:05:01.652Z,2.33
2023-07-08T18:07:05.130Z,2.30
2023-07-08T18:09:07.686Z,2.53
2023-07-08T18:11:13.983Z,2.10
2023-07-08T18:13:20.870Z,2.40
2023-07-08T18:15:26.177Z,2.17
2023-07-08T18:17:29.369Z,2.27
2023-07-08T18:19:32.473Z,2.20
2023-07-08T18:21:35.637Z,2.60
2023-07-08T18:23:40.095Z,2.30
2023-07-08T18:25:43.244Z,2.07
2023-07-08T18:27:48.445Z,2.30
2023-07-08T18:29:51.545Z,2.23
2023-07-08T18:31:54.770Z,3.10
2023-07-08T18:33:57.981Z,2.20
2023-07-08T18:36:01.385Z,2.60
2023-07-08T18:38:04.696Z,2.57
2023-07-08T18:40:10.083Z,2.20
2023-07-08T18:42:13.283Z,2.67
2023-07-08T18:44:26.438Z,2.53
2023-07-08T18:46:29.466Z,2.30
2023-07-08T18:48:32.560Z,2.20
2023-07-08T18:50:36.164Z,2.90
2023-07-08T18:52:38.658Z,2.90
2023-07-08T18:54:41.736Z,2.60
2023-07-08T18:56:45.060Z,2.83
2023-07-08T18:58:48.682Z,2.80
2023-07-08T19:00:53.600Z,3.00
2023-07-08T19:03:00.119Z,2.20
2023-07-08T19:05:02.392Z,2.67
2023-07-08T19:07:07.309Z,2.27
2023-07-08T19:09:10.766Z,2.80
2023-07-08T19:11:18.708Z,3.27
2023-07-08T19:13:23.410Z,2.60
2023-07-08T19:15:28.688Z,2.30
2023-07-08T19:17:33.189Z,2.63
2023-07-08T19:19:36.602Z,2.80
2023-07-08T19:21:40.459Z,2.70
2023-07-08T19:23:46.680Z,2.33
2023-07-08T19:25:50.050Z,2.53
2023-07-08T19:27:54.180Z,2.50
2023-07-08T19:29:57.393Z,2.80
2023-07-08T19:32:00.593Z,2.90
2023-07-08T19:34:06.945Z,2.90
2023-07-08T19:36:10.538Z,2.50
2023-07-08T19:38:16.068Z,3.23
2023-07-08T19:40:22.081Z,2.77
2023-07-08T19:42:26.946Z,2.83
2023-07-08T19:44:30.148Z,2.67
2023-07-08T19:46:32.493Z,2.97
2023-07-08T19:48:36.065Z,2.53
2023-07-08T19:50:40.923Z,2.50
2023-07-08T19:52:44.510Z,2.70
2023-07-08T19:54:47.616Z,2.43
2023-07-08T19:56:50.703Z,3.00
2023-07-08T19:58:53.803Z,2.87
2023-07-08T20:00:56.911Z,3.27
2023-07-08T20:03:00.698Z,2.80
2023-07-08T20:05:03.848Z,2.87
2023-07-08T20:07:13.320Z,3.27
2023-07-08T20:09:16.823Z,3.23
2023-07-08T20:11:19.474Z,3.10
2023-07-08T20:13:23.095Z,3.67
2023-07-08T20:15:27.598Z,4.33
2023-07-08T20:17:30.716Z,3.57
2023-07-08T20:19:33.921Z,3.30
2023-07-08T20:21:37.033Z,3.50
2023-07-08T20:23:41.755Z,3.93
2023-07-08T20:25:46.280Z,3.70
2023-07-08T20:27:50.127Z,3.60
2023-07-08T20:29:53.191Z,3.60
2023-07-08T20:31:56.293Z,3.13
2023-07-08T20:33:59.689Z,3.77
2023-07-08T20:36:03.111Z,3.10
2023-07-08T20:38:07.238Z,3.40
2023-07-08T20:40:20.937Z,3.20
2023-07-08T20:42:24.035Z,3.47
2023-07-08T20:44:27.083Z,3.03
2023-07-08T20:46:30.618Z,3.70
2023-07-08T20:48:33.758Z,3.70
2023-07-08T20:50:36.906Z,3.40
2023-07-08T20:52:40.005Z,3.23
2023-07-08T20:54:43.082Z,3.20
2023-07-08T20:56:47.598Z,3.53
2023-07-08T20:58:50.656Z,3.50
2023-07-08T21:00:54.432Z,3.20
2023-07-08T21:02:58.472Z,3.60
2023-07-08T21:05:02.492Z,3.83
2023-07-08T21:07:06.248Z,3.97
2023-07-08T21:09:12.256Z,3.30
2023-07-08T21:11:15.388Z,3.87
2023-07-08T21:13:20.295Z,3.40
2023-07-08T21:15:35.029Z,3.30
2023-07-08T21:17:40.204Z,3.13
2023-07-08T21:19:43.510Z,3.47
2023-07-08T21:21:46.576Z,3.83
2023-07-08T21:23:50.139Z,3.43
2023-07-08T21:25:54.682Z,3.27
2023-07-08T21:27:57.757Z,3.27
2023-07-08T21:30:02.262Z,3.57
2023-07-08T21:32:06.069Z,3.20
2023-07-08T21:34:10.046Z,3.20
2023-07-08T21:36:23.391Z,2.83
2023-07-08T21:38:27.565Z,3.10
2023-07-08T21:40:35.757Z,3.13
2023-07-08T21:42:38.835Z,3.63
2023-07-08T21:44:42.026Z,3.03
2023-07-08T21:46:46.923Z,3.40
2023-07-08T21:48:50.294Z,3.57
2023-07-08T21:50:55.746Z,3.40
2023-07-08T21:53:01.527Z,3.73
2023-07-08T21:55:06.417Z,3.60
2023-07-08T21:57:14.901Z,3.70
2023-07-08T21:59:19.213Z,3.43
2023-07-08T22:01:24.647Z,3.70
2023-07-08T22:03:29.905Z,3.73
2023-07-08T22:05:33.069Z,4.43
2023-07-08T22:07:36.648Z,3.60
2023-07-08T22:09:40.450Z,3.37
2023-07-08T22:11:47.452Z,3.23
2023-07-08T22:13:50.838Z,4.90
2023-07-08T22:15:54.979Z,4.30
2023-07-08T22:18:00.124Z,3.80
2023-07-08T22:20:07.299Z,3.40
2023-07-08T22:22:11.850Z,3.60
2023-07-08T22:24:14.930Z,3.93
2023-07-08T22:26:18.254Z,3.60
2023-07-08T22:28:21.821Z,4.53
2023-07-08T22:30:25.329Z,3.67
2023-07-08T22:32:28.623Z,3.23
2023-07-08T22:34:31.732Z,3.47
2023-07-08T22:36:36.722Z,3.53
2023-07-08T22:38:39.774Z,3.90
2023-07-08T22:40:44.204Z,3.80
2023-07-08T22:42:46.303Z,4.30
2023-07-08T22:44:49.385Z,3.57
2023-07-08T22:46:52.465Z,3.43
2023-07-08T22:48:58.776Z,3.73
2023-07-08T22:51:02.986Z,4.23
2023-07-08T22:53:09.844Z,3.60
2023-07-08T22:55:15.760Z,3.77
2023-07-08T22:57:18.775Z,4.30
2023-07-08T22:59:21.927Z,4.00
2023-07-08T23:01:24.997Z,3.80
2023-07-08T23:03:28.286Z,3.60
2023-07-08T23:05:39.911Z,4.07
2023-07-08T23:07:43.413Z,4.33
2023-07-08T23:09:47.923Z,3.77
2023-07-08T23:11:50.120Z,3.23
2023-07-08T23:13:53.363Z,3.70
2023-07-08T23:15:57.146Z,3.93
2023-07-08T23:18:00.439Z,3.90
2023-07-08T23:20:03.805Z,4.00
2023-07-08T23:22:09.936Z,3.67
2023-07-08T23:24:13.159Z,3.83
2023-07-08T23:26:19.373Z,4.10
2023-07-08T23:28:22.455Z,4.20
2023-07-08T23:30:25.748Z,4.17
2023-07-08T23:32:28.888Z,3.97
2023-07-08T23:34:32.025Z,4.27
2023-07-08T23:36:37.768Z,3.77
2023-07-08T23:38:40.779Z,3.33
2023-07-08T23:40:44.608Z,3.63
2023-07-08T23:42:49.029Z,3.10
2023-07-08T23:44:51.215Z,3.70
2023-07-08T23:46:56.801Z,3.43
2023-07-08T23:49:02.636Z,3.63
2023-07-08T23:51:05.646Z,4.13
2023-07-08T23:53:09.637Z,4.47
2023-07-08T23:55:13.673Z,4.03
2023-07-08T23:57:18.897Z,3.73
2023-07-08T23:59:24.317Z,3.77
